Time;durP1;ratioP1;P1;durP2;ratioP2;P2;SDS_P1;SDS_P2;PMS_P1;PMS_P2;Temp;Humidity;BMP_temperature;BMP_pressure;BME280_temperature;BME280_humidity;BME280_pressure;Samples;Min_cycle;Max_cycle;Signal;HPM_P1;HPM_P2
2021/08/28 00:00:50;;;;;;;5.07;4.33;;;19.50;49.40;;;;;;4994575;28;20522;-84
2021/08/28 00:03:19;;;;;;;5.40;3.93;;;19.60;49.00;;;;;;4995597;28;20482;-84
2021/08/28 00:05:47;;;;;;;5.13;4.17;;;19.40;49.10;;;;;;4995368;28;20537;-84
2021/08/28 00:08:14;;;;;;;6.10;4.17;;;19.30;50.20;;;;;;4995033;28;20574;-84
2021/08/28 00:10:41;;;;;;;8.23;3.80;;;19.30;49.70;;;;;;4995294;28;20534;-84
2021/08/28 00:13:08;;;;;;;9.87;4.00;;;19.20;50.50;;;;;;4995718;28;20486;-84
2021/08/28 00:15:35;;;;;;;12.03;4.13;;;19.50;49.80;;;;;;5010103;28;20442;-84
2021/08/28 00:18:02;;;;;;;6.17;4.17;;;19.30;49.60;;;;;;5014878;28;20743;-84
2021/08/28 00:20:31;;;;;;;4.90;3.63;;;19.20;49.70;;;;;;5015778;28;20474;-85
2021/08/28 00:22:58;;;;;;;6.80;4.13;;;19.50;49.40;;;;;;5014712;28;20874;-84
2021/08/28 00:25:25;;;;;;;5.83;4.40;;;20.10;48.90;;;;;;5002427;28;20478;-84
2021/08/28 00:27:52;;;;;;;9.13;4.53;;;20.60;48.10;;;;;;4994443;28;20498;-85
2021/08/28 00:30:19;;;;;;;4.40;3.60;;;20.80;46.70;;;;;;4995827;28;20534;-85
2021/08/28 00:32:46;;;;;;;6.33;3.87;;;21.10;46.60;;;;;;5008383;28;20509;-84
2021/08/28 00:35:13;;;;;;;4.10;3.13;;;20.90;46.00;;;;;;5002525;28;20499;-84
2021/08/28 00:37:41;;;;;;;7.03;3.53;;;20.80;46.90;;;;;;4995389;28;20857;-84
2021/08/28 00:40:09;;;;;;;5.57;3.77;;;21.00;45.40;;;;;;4995104;28;20911;-85
2021/08/28 00:42:47;;;;;;;5.23;3.33;;;21.10;46.40;;;;;;4995428;28;20538;-85
2021/08/28 00:45:14;;;;;;;4.97;3.67;;;21.20;46.20;;;;;;5009975;28;20467;-84
2021/08/28 00:47:40;;;;;;;6.93;3.43;;;21.30;45.70;;;;;;5000045;28;20732;-84
2021/08/28 00:50:08;;;;;;;5.67;3.97;;;21.20;45.60;;;;;;4999131;28;20498;-85
2021/08/28 00:52:36;;;;;;;5.37;4.17;;;21.30;46.50;;;;;;4995006;28;20799;-85
2021/08/28 00:55:05;;;;;;;3.47;3.20;;;21.50;45.50;;;;;;4994424;28;20809;-85
2021/08/28 00:57:32;;;;;;;7.47;5.23;;;21.50;45.90;;;;;;4994747;28;20432;-86
2021/08/28 00:59:59;;;;;;;5.73;3.17;;;21.20;45.60;;;;;;4994050;28;20577;-86
2021/08/28 01:02:29;;;;;;;5.87;3.90;;;21.20;46.20;;;;;;4995403;28;20521;-86
2021/08/28 01:05:02;;;;;;;8.60;4.40;;;21.30;45.70;;;;;;4994957;28;20455;-86
2021/08/28 01:07:43;;;;;;;7.70;4.97;;;21.40;45.80;;;;;;4993809;28;20424;-85
2021/08/28 01:10:11;;;;;;;9.93;5.80;;;21.50;45.90;;;;;;4994873;28;20557;-85
2021/08/28 01:12:43;;;;;;;3.73;3.10;;;21.40;45.80;;;;;;4994831;28;20621;-85
2021/08/28 01:15:13;;;;;;;5.13;3.17;;;21.40;45.80;;;;;;4994679;28;20423;-85
2021/08/28 01:17:44;;;;;;;5.27;3.83;;;21.40;45.80;;;;;;4993390;28;20963;-85
2021/08/28 01:20:20;;;;;;;5.80;3.60;;;21.50;45.90;;;;;;4994027;28;20510;-85
2021/08/28 01:22:49;;;;;;;3.70;2.97;;;21.70;46.10;;;;;;4993850;28;20461;-86
2021/08/28 01:25:19;;;;;;;6.67;3.27;;;21.60;46.00;;;;;;4994697;28;20562;-85
2021/08/28 01:27:52;;;;;;;3.37;3.17;;;21.50;45.20;;;;;;4994191;28;20475;-86
2021/08/28 01:30:21;;;;;;;5.43;2.90;;;21.10;45.50;;;;;;4993926;28;20525;-86
2021/08/28 01:32:48;;;;;;;3.70;3.27;;;20.70;47.10;;;;;;4994101;28;20482;-86
2021/08/28 01:35:16;;;;;;;5.10;3.53;;;20.80;47.00;;;;;;4993038;28;20443;-86
2021/08/28 01:37:44;;;;;;;6.00;3.30;;;20.70;46.30;;;;;;4993957;28;20451;-85
2021/08/28 01:40:13;;;;;;;4.43;3.47;;;20.70;47.50;;;;;;4993895;28;20466;-86
2021/08/28 01:42:43;;;;;;;6.87;3.13;;;21.00;47.30;;;;;;5002063;28;20499;-86
2021/08/28 01:45:14;;;;;;;6.37;3.70;;;20.90;45.40;;;;;;5009739;28;20446;-86
2021/08/28 01:47:43;;;;;;;9.20;4.20;;;21.10;45.70;;;;;;5007276;28;20466;-86
2021/08/28 01:50:12;;;;;;;4.33;3.67;;;21.20;46.10;;;;;;5007815;28;20546;-85
2021/08/28 01:52:39;;;;;;;7.00;3.40;;;21.30;46.00;;;;;;5007187;28;20466;-85
2021/08/28 01:55:07;;;;;;;4.00;3.00;;;21.40;45.80;;;;;;4998577;28;20447;-86
2021/08/28 01:57:36;;;;;;;5.20;3.70;;;21.40;45.80;;;;;;4996778;28;20450;-85
2021/08/28 02:00:04;;;;;;;4.90;3.10;;;21.40;46.20;;;;;;5002429;28;20475;-85
2021/08/28 02:02:31;;;;;;;3.80;2.90;;;21.50;45.90;;;;;;5006084;28;20809;-86
2021/08/28 02:04:59;;;;;;;6.93;3.50;;;21.50;45.90;;;;;;5002161;28;20978;-85
2021/08/28 02:07:35;;;;;;;5.00;3.37;;;21.50;45.90;;;;;;5002263;28;20457;-85
2021/08/28 02:10:06;;;;;;;6.97;4.07;;;21.20;45.60;;;;;;4997326;28;20565;-85
2021/08/28 02:12:37;;;;;;;7.20;3.70;;;20.70;46.40;;;;;;5000227;28;20469;-85
2021/08/28 02:15:08;;;;;;;4.63;3.30;;;20.60;47.00;;;;;;4999060;28;20910;-85
2021/08/28 02:17:43;;;;;;;8.43;3.70;;;20.60;47.10;;;;;;4999796;28;20439;-85
2021/08/28 02:20:15;;;;;;;6.53;3.60;;;20.30;46.60;;;;;;4998684;28;20465;-85
2021/08/28 02:22:47;;;;;;;4.50;3.67;;;20.20;48.30;;;;;;4998417;28;20472;-85
2021/08/28 02:25:25;;;;;;;5.30;3.90;;;20.10;48.80;;;;;;4998394;28;20864;-86
2021/08/28 02:28:00;;;;;;;5.63;3.73;;;20.20;48.20;;;;;;4999110;28;20462;-85
2021/08/28 02:30:30;;;;;;;9.97;3.97;;;20.20;47.80;;;;;;4999889;28;20513;-85
2021/08/28 02:32:58;;;;;;;3.40;2.90;;;20.40;47.60;;;;;;4998808;28;20506;-86
2021/08/28 02:35:28;;;;;;;4.37;3.17;;;20.50;48.00;;;;;;5004877;28;20427;-85
2021/08/28 02:37:57;;;;;;;5.80;3.10;;;20.60;48.30;;;;;;5007748;28;20470;-85
2021/08/28 02:40:27;;;;;;;3.43;2.93;;;21.00;48.20;;;;;;4998496;28;20636;-85
2021/08/28 02:42:55;;;;;;;5.07;3.27;;;21.30;47.20;;;;;;4999143;28;20538;-85
2021/08/28 02:45:27;;;;;;;4.30;2.73;;;21.50;46.90;;;;;;4998677;28;20455;-85
2021/08/28 02:47:54;;;;;;;5.17;3.73;;;21.60;46.00;;;;;;5013629;28;20880;-84
2021/08/28 02:50:25;;;;;;;3.53;2.73;;;21.50;45.40;;;;;;5017148;28;20592;-85
2021/08/28 02:52:55;;;;;;;5.63;3.37;;;21.20;45.60;;;;;;5016922;28;20477;-86
2021/08/28 02:55:22;;;;;;;5.27;3.97;;;21.10;46.30;;;;;;5016643;28;20541;-86
2021/08/28 02:57:53;;;;;;;6.70;3.70;;;21.10;45.50;;;;;;5016286;28;20803;-86
2021/08/28 03:00:20;;;;;;;9.27;3.47;;;20.90;45.30;;;;;;5016267;28;20505;-85
2021/08/28 03:02:49;;;;;;;10.63;3.57;;;21.00;46.20;;;;;;5016858;28;20470;-85
2021/08/28 03:05:18;;;;;;;3.90;3.50;;;20.90;45.30;;;;;;5016134;28;20466;-85
2021/08/28 03:07:46;;;;;;;7.70;4.20;;;20.50;47.20;;;;;;5016839;28;20454;-84
2021/08/28 03:10:15;;;;;;;5.77;3.90;;;20.40;46.70;;;;;;5017083;28;20489;-86
2021/08/28 03:12:43;;;;;;;5.63;3.80;;;20.40;47.20;;;;;;5017512;28;20525;-84
2021/08/28 03:15:12;;;;;;;5.33;3.67;;;20.40;47.30;;;;;;5016676;28;20482;-85
2021/08/28 03:17:40;;;;;;;9.50;4.13;;;20.40;47.60;;;;;;5016796;28;20876;-85
2021/08/28 03:20:10;;;;;;;6.03;3.40;;;20.60;47.60;;;;;;5016201;28;21011;-84
2021/08/28 03:22:39;;;;;;;3.60;3.20;;;20.80;47.50;;;;;;5015303;28;20521;-84
2021/08/28 03:25:09;;;;;;;3.60;3.00;;;20.90;46.90;;;;;;5016068;28;20869;-85
2021/08/28 03:27:40;;;;;;;5.80;3.70;;;20.80;46.80;;;;;;5015979;28;20525;-84
2021/08/28 03:30:10;;;;;;;7.37;3.37;;;20.70;45.50;;;;;;5015604;28;20482;-85
2021/08/28 03:32:38;;;;;;;7.97;3.60;;;20.80;46.80;;;;;;5015763;28;20470;-86
2021/08/28 03:35:06;;;;;;;7.23;3.30;;;20.70;47.50;;;;;;5014982;28;20489;-85
2021/08/28 03:37:34;;;;;;;8.03;2.97;;;21.00;47.30;;;;;;5015847;28;20501;-85
2021/08/28 03:40:01;;;;;;;5.00;2.97;;;21.10;47.60;;;;;;5016157;28;20801;-85
2021/08/28 03:42:28;;;;;;;4.40;3.07;;;21.20;46.90;;;;;;5017444;28;20921;-85
2021/08/28 03:45:04;;;;;;;3.43;2.90;;;21.40;46.90;;;;;;5017143;28;20450;-85
2021/08/28 03:47:31;;;;;;;3.30;3.10;;;21.40;45.80;;;;;;5019781;28;20926;-85
2021/08/28 03:49:58;;;;;;;9.93;3.90;;;21.10;45.50;;;;;;5016904;28;20897;-85
2021/08/28 03:52:25;;;;;;;7.90;3.70;;;21.10;45.50;;;;;;5015069;28;20457;-85
2021/08/28 03:54:52;;;;;;;4.03;2.83;;;21.20;46.50;;;;;;5014606;28;20474;-85
2021/08/28 03:57:19;;;;;;;6.40;3.10;;;21.30;46.50;;;;;;5015458;28;20456;-85
2021/08/28 03:59:49;;;;;;;4.00;3.40;;;21.20;46.50;;;;;;5069035;23;20544;-88
2021/08/28 04:02:22;;;;;;;3.90;3.10;;;21.10;45.60;;;;;;5023384;28;20489;-88
2021/08/28 04:04:52;;;;;;;3.30;2.60;;;21.20;46.90;;;;;;5023746;28;20403;-88
2021/08/28 04:07:19;;;;;;;4.07;2.93;;;21.10;45.60;;;;;;5023378;28;20453;-86
2021/08/28 04:09:49;;;;;;;4.60;2.97;;;21.20;46.90;;;;;;5022969;28;20493;-86
2021/08/28 04:12:19;;;;;;;6.70;3.30;;;21.30;46.20;;;;;;5023980;28;20484;-86
2021/08/28 04:14:52;;;;;;;5.60;3.60;;;21.40;46.30;;;;;;5024169;28;20536;-86
2021/08/28 04:17:32;;;;;;;8.43;3.50;;;21.40;46.00;;;;;;5028908;28;20457;-86
2021/08/28 04:20:08;;;;;;;6.37;3.50;;;21.20;46.90;;;;;;5030605;28;20497;-86
2021/08/28 04:22:43;;;;;;;3.73;2.90;;;21.10;46.30;;;;;;5024732;28;20834;-86
2021/08/28 04:25:26;;;;;;;16.03;4.60;;;20.80;47.10;;;;;;5023227;28;20464;-87
2021/08/28 04:27:55;;;;;;;4.43;3.20;;;21.10;45.80;;;;;;5035203;28;20458;-87
2021/08/28 04:30:24;;;;;;;3.57;2.73;;;21.10;45.60;;;;;;5031218;28;20482;-87
2021/08/28 04:32:58;;;;;;;4.83;3.63;;;21.00;46.90;;;;;;5024451;28;20439;-87
2021/08/28 04:35:27;;;;;;;5.53;3.80;;;21.00;45.50;;;;;;5033968;28;20443;-87
2021/08/28 04:37:54;;;;;;;4.93;3.13;;;21.00;47.00;;;;;;5033545;28;20469;-87
2021/08/28 04:40:21;;;;;;;7.17;3.90;;;21.10;46.40;;;;;;5031238;28;20465;-87
2021/08/28 04:42:48;;;;;;;6.13;4.17;;;21.00;45.50;;;;;;5028641;28;20517;-88
2021/08/28 04:45:15;;;;;;;8.50;4.70;;;21.00;46.80;;;;;;5020251;28;20441;-87
2021/08/28 04:47:42;;;;;;;8.80;4.90;;;20.90;45.50;;;;;;5020822;28;20457;-87
2021/08/28 04:50:12;;;;;;;8.40;4.53;;;20.50;45.60;;;;;;5020875;28;20488;-87
2021/08/28 04:52:39;;;;;;;6.77;4.50;;;20.60;47.20;;;;;;5019733;28;20482;-87
2021/08/28 04:55:06;;;;;;;7.93;4.50;;;20.80;46.80;;;;;;5018639;28;20454;-87
2021/08/28 04:57:33;;;;;;;4.17;3.53;;;20.90;46.80;;;;;;5019064;28;20524;-87
2021/08/28 05:00:00;;;;;;;4.27;3.40;;;21.00;47.50;;;;;;5019384;28;20540;-87
2021/08/28 05:02:27;;;;;;;2.93;2.80;;;21.20;47.00;;;;;;5019197;28;20508;-87
2021/08/28 05:04:55;;;;;;;10.57;4.73;;;21.30;46.70;;;;;;5018951;28;20493;-87
2021/08/28 05:07:23;;;;;;;3.07;2.90;;;21.20;47.10;;;;;;5019333;28;20430;-87
2021/08/28 05:09:50;;;;;;;5.80;4.03;;;21.30;45.70;;;;;;5020200;28;20482;-87
2021/08/28 05:12:17;;;;;;;5.63;4.17;;;21.30;45.80;;;;;;5020352;28;20434;-87
2021/08/28 05:14:44;;;;;;;6.50;3.70;;;21.30;46.00;;;;;;5018701;28;20766;-87
2021/08/28 05:17:13;;;;;;;5.23;3.10;;;21.50;46.70;;;;;;5020073;28;20461;-87
2021/08/28 05:19:40;;;;;;;6.30;4.40;;;21.50;46.60;;;;;;5019868;28;20562;-87
2021/08/28 05:22:11;;;;;;;7.20;4.50;;;21.50;46.10;;;;;;5019370;28;20461;-88
2021/08/28 05:28:22;;;;;;;3.33;2.67;;;21.60;46.00;;;;;;5008206;28;20434;-88
2021/08/28 05:30:51;;;;;;;5.33;4.10;;;21.60;46.20;;;;;;5013099;28;20584;-87
2021/08/28 05:33:18;;;;;;;5.50;3.80;;;21.50;46.10;;;;;;5015353;28;20433;-87
2021/08/28 05:35:45;;;;;;;6.50;4.00;;;21.40;46.30;;;;;;5013566;28;20457;-87
2021/08/28 05:38:12;;;;;;;6.13;4.07;;;21.50;46.10;;;;;;5013728;28;20478;-88
2021/08/28 05:40:51;;;;;;;5.00;3.70;;;21.60;46.10;;;;;;5013735;28;20985;-88
2021/08/28 05:43:22;;;;;;;8.13;4.10;;;21.60;46.10;;;;;;5013686;28;20533;-88
2021/08/28 05:45:50;;;;;;;4.27;2.77;;;21.70;46.10;;;;;;5012684;28;20538;-88
2021/08/28 05:48:17;;;;;;;12.73;4.20;;;21.80;46.30;;;;;;5012482;28;20462;-88
2021/08/28 05:50:45;;;;;;;5.57;4.10;;;21.80;46.20;;;;;;5012533;28;20634;-88
2021/08/28 05:53:12;;;;;;;8.93;5.00;;;21.80;45.50;;;;;;5013559;28;20769;-88
2021/08/28 05:55:39;;;;;;;6.20;3.40;;;21.70;46.20;;;;;;5014209;28;20980;-88
2021/08/28 05:58:06;;;;;;;5.63;3.77;;;21.70;46.20;;;;;;5014476;28;20438;-88
2021/08/28 06:00:36;;;;;;;5.80;4.50;;;21.70;46.20;;;;;;5016661;28;20568;-88
2021/08/28 06:03:03;;;;;;;5.07;2.80;;;21.70;46.10;;;;;;5016552;28;20454;-88
2021/08/28 06:05:30;;;;;;;5.20;4.07;;;21.90;46.30;;;;;;5017017;28;20509;-87
2021/08/28 06:07:57;;;;;;;7.80;3.60;;;21.90;46.30;;;;;;5016717;28;20442;-87
2021/08/28 06:10:24;;;;;;;7.27;4.50;;;21.90;46.10;;;;;;5017138;28;20478;-87
2021/08/28 06:12:51;;;;;;;6.93;3.87;;;21.70;46.10;;;;;;5016736;28;20516;-87
2021/08/28 06:15:18;;;;;;;9.13;5.50;;;21.70;46.10;;;;;;5015906;28;20515;-87
2021/08/28 06:17:47;;;;;;;8.07;5.00;;;21.70;46.20;;;;;;5017128;28;20772;-88
2021/08/28 06:20:14;;;;;;;7.13;4.80;;;21.60;46.00;;;;;;5017215;28;20546;-88
2021/08/28 06:22:43;;;;;;;10.17;6.43;;;21.60;46.00;;;;;;5016791;28;20971;-87
2021/08/28 06:25:11;;;;;;;4.60;3.70;;;21.40;46.20;;;;;;5017257;28;20505;-88
2021/08/28 06:27:43;;;;;;;6.43;4.57;;;21.30;47.50;;;;;;5017356;28;20453;-88
2021/08/28 06:30:10;;;;;;;5.40;4.83;;;21.20;46.90;;;;;;5016508;28;20555;-87
2021/08/28 06:32:38;;;;;;;7.03;4.23;;;21.40;46.80;;;;;;5016630;28;20450;-88
2021/08/28 06:35:07;;;;;;;7.83;4.40;;;21.60;46.50;;;;;;5016245;28;20442;-88
2021/08/28 06:37:34;;;;;;;11.60;5.67;;;21.70;46.20;;;;;;5017116;28;20461;-88
2021/08/28 06:40:19;;;;;;;9.77;5.80;;;21.80;46.30;;;;;;5016721;28;20470;-88
2021/08/28 06:43:07;;;;;;;12.27;6.50;;;21.90;46.30;;;;;;5016714;28;20450;-88
2021/08/28 06:45:34;;;;;;;14.20;6.80;;;21.80;46.20;;;;;;5017104;28;20497;-89
2021/08/28 06:48:01;;;;;;;7.43;6.27;;;21.80;46.30;;;;;;5016043;28;20484;-88
2021/08/28 06:50:45;;;;;;;7.07;5.50;;;21.80;46.30;;;;;;5015982;28;20477;-89
2021/08/28 06:53:12;;;;;;;12.60;6.90;;;21.90;46.30;;;;;;5016458;28;20430;-88
2021/08/28 06:55:39;;;;;;;9.80;5.97;;;21.90;46.50;;;;;;5015786;28;20562;-89
2021/08/28 06:58:06;;;;;;;5.57;4.80;;;22.10;46.30;;;;;;5018708;28;20446;-88
2021/08/28 07:00:33;;;;;;;6.80;5.23;;;22.20;45.70;;;;;;5019417;28;21019;-88
2021/08/28 07:03:00;;;;;;;9.23;7.07;;;22.30;45.60;;;;;;5019333;28;20523;-88
2021/08/28 07:05:27;;;;;;;5.83;5.27;;;22.40;45.20;;;;;;5019303;28;20441;-88
2021/08/28 07:07:56;;;;;;;5.40;4.73;;;22.40;44.50;;;;;;5019100;28;20430;-88
2021/08/28 07:10:23;;;;;;;8.13;6.33;;;22.30;45.00;;;;;;5019170;28;20477;-88
2021/08/28 07:12:50;;;;;;;10.87;7.43;;;22.30;44.60;;;;;;5019012;28;20517;-88
2021/08/28 07:15:17;;;;;;;13.30;6.10;;;22.20;45.10;;;;;;5024054;28;20466;-87
2021/08/28 07:17:44;;;;;;;5.27;3.77;;;22.30;45.60;;;;;;5019812;28;20504;-88
2021/08/28 07:20:12;;;;;;;10.30;6.10;;;22.40;45.60;;;;;;5018835;28;20462;-88
2021/08/28 07:22:39;;;;;;;10.43;6.27;;;22.40;45.00;;;;;;5018796;28;20449;-87
2021/08/28 07:25:09;;;;;;;9.13;5.40;;;22.30;44.20;;;;;;5019052;28;20442;-88
2021/08/28 07:27:36;;;;;;;11.80;4.10;;;22.10;45.40;;;;;;5018610;28;20550;-88
2021/08/28 07:30:03;;;;;;;8.87;5.60;;;22.10;45.70;;;;;;5018533;28;20521;-88
2021/08/28 07:32:30;;;;;;;15.60;6.53;;;22.30;46.40;;;;;;5018194;28;20450;-88
2021/08/28 07:34:58;;;;;;;11.20;6.50;;;22.60;44.50;;;;;;5017469;28;20476;-88
2021/08/28 07:37:25;;;;;;;12.10;5.83;;;22.60;44.20;;;;;;5017252;28;20445;-87
2021/08/28 07:39:52;;;;;;;8.10;5.87;;;22.20;44.50;;;;;;5017009;28;20532;-88
2021/08/28 07:42:20;;;;;;;7.80;5.60;;;22.10;44.70;;;;;;5017484;28;20493;-87
2021/08/28 07:44:47;;;;;;;9.23;5.47;;;21.70;45.30;;;;;;5017683;28;20967;-87
2021/08/28 07:47:14;;;;;;;6.20;5.30;;;21.20;45.70;;;;;;5018168;28;20457;-88
2021/08/28 07:49:42;;;;;;;5.40;4.53;;;21.10;45.00;;;;;;5018306;28;20486;-87
2021/08/28 07:52:09;;;;;;;6.67;4.80;;;21.20;45.70;;;;;;5018114;28;20556;-87
2021/08/28 07:54:36;;;;;;;7.87;5.20;;;21.70;44.60;;;;;;5017617;28;20466;-88
2021/08/28 07:57:03;;;;;;;6.57;4.60;;;22.10;43.10;;;;;;5017748;28;20478;-88
2021/08/28 07:59:32;;;;;;;4.50;3.90;;;22.00;43.60;;;;;;5018177;28;20482;-88
2021/08/28 08:01:59;;;;;;;12.17;4.87;;;22.40;44.30;;;;;;5017869;28;20533;-88
2021/08/28 08:04:26;;;;;;;5.63;4.13;;;22.70;42.10;;;;;;5017848;28;20454;-87
2021/08/28 08:06:52;;;;;;;4.57;4.03;;;22.80;42.60;;;;;;5017833;28;20485;-88
2021/08/28 08:09:19;;;;;;;8.90;4.70;;;23.10;41.90;;;;;;5017568;28;20466;-88
2021/08/28 08:11:47;;;;;;;3.97;3.53;;;23.20;40.10;;;;;;5017811;28;20513;-88
2021/08/28 08:14:14;;;;;;;6.50;4.27;;;23.00;40.60;;;;;;5018373;28;20484;-88
2021/08/28 08:16:42;;;;;;;6.10;3.90;;;23.00;40.00;;;;;;5018767;28;20438;-85
2021/08/28 08:19:09;;;;;;;5.87;3.70;;;22.60;40.10;;;;;;5017752;28;20902;-85
2021/08/28 08:21:36;;;;;;;6.70;3.23;;;22.00;42.30;;;;;;5017594;28;20531;-85
2021/08/28 08:24:04;;;;;;;4.73;3.30;;;22.00;42.30;;;;;;5017659;28;20457;-87
2021/08/28 08:26:34;;;;;;;4.30;3.00;;;22.10;42.50;;;;;;5018086;28;20454;-87
2021/08/28 08:29:01;;;;;;;8.57;3.50;;;22.20;41.50;;;;;;5018104;28;20526;-88
2021/08/28 08:31:29;;;;;;;5.00;3.27;;;22.60;42.30;;;;;;5018004;28;20490;-88
2021/08/28 08:33:57;;;;;;;4.70;3.60;;;22.60;40.50;;;;;;5018755;28;20458;-88
2021/08/28 08:36:24;;;;;;;5.70;3.43;;;22.40;40.80;;;;;;5018140;28;20446;-88
2021/08/28 08:38:51;;;;;;;4.30;3.40;;;22.00;39.30;;;;;;5018572;28;20482;-88
2021/08/28 08:41:19;;;;;;;4.97;3.70;;;21.50;41.90;;;;;;5018816;28;20442;-88
2021/08/28 08:43:49;;;;;;;4.70;4.03;;;21.40;42.60;;;;;;5018027;28;20454;-87
2021/08/28 08:46:17;;;;;;;4.43;3.57;;;20.20;43.30;;;;;;5017607;28;20930;-87
2021/08/28 08:48:45;;;;;;;6.10;3.57;;;19.50;45.00;;;;;;5018088;28;20516;-87
2021/08/28 08:51:14;;;;;;;8.73;3.30;;;19.30;46.10;;;;;;5018487;28;20487;-88
2021/08/28 08:53:42;;;;;;;5.00;3.00;;;19.00;46.40;;;;;;5017827;28;20469;-87
2021/08/28 08:56:09;;;;;;;3.93;2.97;;;18.70;46.30;;;;;;5017467;28;20508;-88
2021/08/28 08:58:36;;;;;;;3.17;2.90;;;18.80;45.40;;;;;;5017928;28;20446;-87
2021/08/28 09:01:04;;;;;;;3.40;2.87;;;18.90;45.30;;;;;;5018389;28;20470;-88
2021/08/28 09:03:31;;;;;;;3.57;3.10;;;19.30;45.20;;;;;;5016928;28;20488;-87
2021/08/28 09:05:59;;;;;;;8.60;3.23;;;19.50;44.70;;;;;;5018254;28;20458;-87
2021/08/28 09:08:27;;;;;;;6.03;4.03;;;19.60;45.10;;;;;;5016833;28;20450;-87
2021/08/28 09:10:54;;;;;;;6.90;4.37;;;19.20;46.90;;;;;;5017280;28;20492;-88
2021/08/28 09:13:23;;;;;;;6.47;4.13;;;19.30;46.70;;;;;;5017256;28;20473;-88
2021/08/28 09:15:55;;;;;;;5.87;4.77;;;19.50;46.20;;;;;;5017218;28;20419;-87
2021/08/28 09:18:22;;;;;;;6.33;4.83;;;19.50;46.60;;;;;;5017290;28;20421;-88
2021/08/28 09:20:50;;;;;;;16.40;4.30;;;19.50;45.30;;;;;;5016351;28;20534;-87
2021/08/28 09:23:19;;;;;;;3.77;3.13;;;19.10;46.30;;;;;;5017031;28;20485;-87
2021/08/28 09:25:52;;;;;;;8.30;4.50;;;19.50;48.00;;;;;;5018431;28;20489;-88
2021/08/28 09:28:33;;;;;;;9.50;4.17;;;20.30;44.90;;;;;;5019015;28;20434;-87
2021/08/28 09:31:02;;;;;;;4.67;3.60;;;20.70;43.00;;;;;;5017187;28;20493;-87
2021/08/28 09:33:34;;;;;;;5.93;3.67;;;20.70;42.30;;;;;;5017175;28;20811;-87
2021/08/28 09:36:03;;;;;;;3.60;3.20;;;20.10;43.00;;;;;;5017760;28;20427;-87
2021/08/28 09:38:39;;;;;;;5.73;3.30;;;20.40;43.70;;;;;;5037514;28;20430;-87
2021/08/28 09:41:09;;;;;;;3.97;2.90;;;20.20;42.60;;;;;;5021581;28;20419;-87
2021/08/28 09:43:36;;;;;;;6.43;3.30;;;19.50;45.40;;;;;;5017026;28;20454;-87
2021/08/28 09:46:10;;;;;;;3.60;2.97;;;19.80;44.50;;;;;;5019308;28;20450;-87
2021/08/28 09:48:39;;;;;;;6.93;3.20;;;20.20;43.20;;;;;;5030095;28;20433;-88
2021/08/28 09:51:09;;;;;;;4.77;3.40;;;19.50;43.00;;;;;;5024793;28;21091;-87
2021/08/28 09:53:39;;;;;;;3.83;3.00;;;19.40;44.40;;;;;;5029994;28;20490;-87
2021/08/28 09:56:09;;;;;;;4.60;3.30;;;19.80;44.40;;;;;;5031947;28;20553;-87
2021/08/28 09:58:38;;;;;;;3.50;2.90;;;20.40;43.40;;;;;;5027946;28;20458;-87
2021/08/28 10:01:06;;;;;;;4.23;2.97;;;20.80;42.40;;;;;;5046360;22;20842;-84
2021/08/28 10:03:34;;;;;;;4.43;3.50;;;21.30;41.50;;;;;;5012832;28;20466;-83
2021/08/28 10:06:02;;;;;;;7.03;3.13;;;21.50;41.00;;;;;;5017194;28;20431;-84
2021/08/28 10:08:32;;;;;;;3.70;2.87;;;21.70;40.00;;;;;;5017681;28;20494;-84
2021/08/28 10:11:00;;;;;;;4.23;2.70;;;21.20;40.70;;;;;;5015488;28;20487;-84
2021/08/28 10:13:29;;;;;;;3.60;3.13;;;20.90;40.90;;;;;;4994433;28;20483;-85
2021/08/28 10:15:57;;;;;;;2.90;2.70;;;21.30;42.20;;;;;;4994300;28;20435;-84
2021/08/28 10:18:24;;;;;;;3.03;2.57;;;21.10;40.10;;;;;;4994339;28;20501;-84
2021/08/28 10:20:53;;;;;;;4.27;2.80;;;20.00;43.30;;;;;;4994276;28;20471;-84
2021/08/28 10:23:24;;;;;;;5.80;3.17;;;19.70;43.20;;;;;;4994671;28;21016;-84
2021/08/28 10:25:51;;;;;;;5.00;3.63;;;19.30;43.90;;;;;;4994410;28;20438;-85
2021/08/28 10:28:19;;;;;;;8.43;3.27;;;19.40;43.30;;;;;;5002220;28;20485;-83
2021/08/28 10:30:48;;;;;;;3.80;3.17;;;18.60;45.10;;;;;;5011912;28;20598;-83
2021/08/28 10:33:15;;;;;;;4.93;2.97;;;18.50;45.90;;;;;;5001748;28;20475;-85
2021/08/28 10:35:43;;;;;;;4.37;3.03;;;19.00;45.60;;;;;;4998683;28;20430;-85
2021/08/28 10:38:11;;;;;;;4.10;2.70;;;19.70;44.30;;;;;;4997948;28;20585;-84
2021/08/28 10:40:41;;;;;;;3.73;3.30;;;19.90;44.40;;;;;;4999301;28;20490;-84
2021/08/28 10:43:10;;;;;;;5.60;3.20;;;19.00;46.00;;;;;;5001893;28;20446;-84
2021/08/28 10:45:40;;;;;;;3.90;3.23;;;19.00;47.40;;;;;;5006355;28;20533;-84
2021/08/28 10:48:13;;;;;;;4.33;3.00;;;19.00;46.30;;;;;;5004280;28;20472;-85
2021/08/28 10:50:42;;;;;;;5.67;3.87;;;18.50;48.40;;;;;;4997708;28;20521;-84
2021/08/28 10:53:10;;;;;;;4.20;3.07;;;17.70;50.40;;;;;;4997719;28;20521;-86
2021/08/28 10:55:39;;;;;;;19.53;3.70;;;17.70;52.00;;;;;;4997133;28;20501;-85
2021/08/28 10:58:13;;;;;;;5.70;3.80;;;18.10;53.20;;;;;;4997407;28;20475;-85
2021/08/28 11:00:42;;;;;;;6.30;3.70;;;17.90;51.60;;;;;;4997161;28;20482;-85
2021/08/28 11:03:24;;;;;;;4.53;4.20;;;17.80;52.40;;;;;;4997416;28;20453;-85
2021/08/28 11:06:21;;;;;;;11.47;4.43;;;18.00;52.50;;;;;;4997144;28;20854;-86
2021/08/28 11:08:50;;;;;;;6.27;4.17;;;18.60;51.10;;;;;;4996995;28;20433;-85
2021/08/28 11:11:29;;;;;;;6.63;4.37;;;18.30;50.10;;;;;;4996810;28;20861;-85
2021/08/28 11:14:02;;;;;;;7.30;4.47;;;18.10;52.10;;;;;;4997830;28;20435;-85
2021/08/28 11:16:50;;;;;;;15.53;4.80;;;18.10;52.00;;;;;;4998280;28;20474;-85
2021/08/28 11:22:23;;;;;;;6.57;4.10;;;18.20;52.10;;;;;;5092499;28;20504;-84
2021/08/28 11:24:58;;;;;;;6.87;4.83;;;18.50;52.20;;;;;;5091573;28;20448;-85
2021/08/28 11:27:39;;;;;;;9.80;4.33;;;18.70;51.00;;;;;;5092857;28;20579;-84
2021/08/28 11:30:07;;;;;;;6.37;3.90;;;18.20;52.60;;;;;;5092751;28;20458;-84
2021/08/28 11:32:34;;;;;;;5.53;3.73;;;18.50;52.00;;;;;;5095664;28;20470;-85
2021/08/28 11:35:01;;;;;;;4.37;3.70;;;18.90;53.40;;;;;;5095042;28;20447;-85
2021/08/28 11:37:44;;;;;;;6.60;3.80;;;19.50;51.20;;;;;;5093025;28;20833;-84
2021/08/28 11:40:31;;;;;;;3.90;3.50;;;19.10;50.10;;;;;;5093972;28;20574;-85
2021/08/28 11:42:59;;;;;;;5.30;3.80;;;19.40;50.80;;;;;;5093898;28;20434;-86
2021/08/28 11:45:31;;;;;;;3.43;3.23;;;19.70;49.40;;;;;;5093516;28;20446;-85
2021/08/28 11:47:58;;;;;;;5.10;3.67;;;20.10;48.50;;;;;;5092904;28;20549;-84
2021/08/28 11:50:30;;;;;;;3.57;3.10;;;19.80;49.60;;;;;;5093070;28;20494;-84
2021/08/28 11:52:59;;;;;;;5.67;3.67;;;19.40;48.50;;;;;;5097744;28;20458;-86
2021/08/28 11:55:26;;;;;;;6.10;3.10;;;19.50;50.00;;;;;;5095133;28;20446;-86
2021/08/28 11:58:05;;;;;;;3.70;3.30;;;20.10;47.90;;;;;;5093461;28;20987;-86
2021/08/28 12:00:33;;;;;;;5.37;3.10;;;20.60;46.90;;;;;;5094085;28;20478;-85
2021/08/28 12:03:02;;;;;;;6.23;3.10;;;20.80;45.80;;;;;;5096029;28;20443;-86
2021/08/28 12:05:31;;;;;;;3.77;3.23;;;21.20;45.60;;;;;;5093151;28;20454;-85
2021/08/28 12:07:59;;;;;;;4.03;3.10;;;21.60;46.00;;;;;;5095011;28;20469;-86
2021/08/28 12:10:27;;;;;;;4.17;2.50;;;22.00;45.30;;;;;;5094052;28;20943;-86
2021/08/28 12:12:58;;;;;;;5.73;2.80;;;22.20;44.10;;;;;;5098064;28;20837;-85
2021/08/28 12:15:26;;;;;;;5.03;2.50;;;22.10;43.80;;;;;;5098192;28;20435;-86
2021/08/28 12:17:55;;;;;;;5.63;2.80;;;22.10;44.10;;;;;;5099818;28;20811;-86
2021/08/28 12:20:24;;;;;;;2.77;2.30;;;22.20;44.50;;;;;;5099953;28;20853;-85
2021/08/28 12:22:52;;;;;;;3.27;2.50;;;22.40;44.10;;;;;;5100123;28;20467;-86
2021/08/28 12:25:21;;;;;;;3.77;3.20;;;22.60;43.80;;;;;;5097029;28;20485;-86
2021/08/28 12:27:49;;;;;;;4.10;2.63;;;22.70;43.00;;;;;;5097751;28;20512;-86
2021/08/28 12:30:17;;;;;;;6.80;2.60;;;22.50;43.10;;;;;;5096487;28;20470;-87
2021/08/28 12:32:44;;;;;;;2.83;2.40;;;22.50;43.30;;;;;;5084483;28;20451;-84
2021/08/28 12:35:11;;;;;;;9.53;3.13;;;22.20;43.10;;;;;;5082442;28;20451;-85
2021/08/28 12:37:39;;;;;;;2.83;2.40;;;22.20;44.40;;;;;;5081162;28;20485;-85
2021/08/28 12:40:13;;;;;;;6.97;2.20;;;22.10;43.60;;;;;;5080839;28;20471;-85
2021/08/28 12:42:43;;;;;;;3.93;2.50;;;22.20;43.50;;;;;;5083218;28;20522;-85
2021/08/28 12:45:12;;;;;;;2.63;2.03;;;22.30;43.20;;;;;;5080278;28;20435;-85
2021/08/28 12:47:43;;;;;;;2.37;2.27;;;22.50;42.40;;;;;;5081921;28;20435;-85
2021/08/28 12:50:11;;;;;;;2.30;2.10;;;22.40;42.70;;;;;;5079006;28;20496;-85
2021/08/28 12:52:40;;;;;;;2.20;2.10;;;22.40;41.90;;;;;;5081073;28;20518;-87
2021/08/28 12:55:18;;;;;;;1.93;1.90;;;22.50;42.70;;;;;;5083669;28;20447;-86
2021/08/28 12:57:54;;;;;;;2.23;1.97;;;22.50;42.30;;;;;;5077395;28;20463;-86
2021/08/28 13:00:21;;;;;;;2.90;2.30;;;22.50;42.90;;;;;;5075463;28;20522;-87
2021/08/28 13:02:49;;;;;;;2.10;1.70;;;22.50;41.80;;;;;;5075085;28;20419;-86